Impacts METAR Board
IDs:

KCVG - Cincinnati Intl, KY, US

Updated at: 1300 UTC 25 Jun 2019
Potential Impact None Slight Moderate High
Time 25/01Z 25/02Z 25/03Z 25/04Z 25/05Z 25/06Z 25/07Z 25/08Z 25/09Z 25/10Z 25/11Z 25/12Z 25/13Z
Temp72 70 70 71 68 68 67 66 65 64 65 66 69
Dewpt65 65 65 65 65 65 64 63 62 61 62 62 63
Altim29.81 29.81 29.83 29.84 29.85 29.87 29.88 29.89 29.90 29.93 29.96 29.98 30.00
VIS10 10 10 10 10 10 10 10 10 10 10 10 10
CIG250 -- -- 95 100 -- -- -- -- 250 300 -- --
CoverBKNSCTFEWOVCBKNFEWFEWFEWFEWBKNBKNSCTSCT
FltCatVFRVFRVFRVFRVFRVFRVFRVFRVFRVFRVFRVFRVFR
WX-------RA------------------
WDir220190220210240240250280250250240250260
WSpd6 6 7 8 4 6 5 4 5 4 4 4 7
WGst-- -- -- -- -- -- -- -- -- -- -- -- --
Raw hourly METARs
KCVG 250052Z 22006KT 10SM FEW030 BKN250 22/18 A2981 RMK AO2 SLP084 T02220183
KCVG 250152Z 19006KT 10SM SCT045 SCT250 21/18 A2981 RMK AO2 SLP087 T02110183
KCVG 250252Z 22007KT 10SM FEW045 FEW250 21/18 A2983 RMK AO2 SLP091 T02110183 52012
KCVG 250352Z 21008KT 10SM -RA FEW038 SCT075 BKN095 OVC130 22/18 A2984 RMK AO2 RAB42 SLP094 P0000 T02170183
KCVG 250459Z 24004KT 10SM SCT017 SCT080 BKN100 20/18 A2985 RMK AO2 SCT017 V FEW T02000183
KCVG 250552Z 24006KT 10SM FEW004 FEW075 FEW100 20/18 A2987 RMK AO2 SLP107 60002 T02000183 10233 20194 53015
KCVG 250652Z 25005KT 10SM FEW110 19/18 A2988 RMK AO2 SLP110 T01940178
KCVG 250752Z 28004KT 10SM FEW250 19/17 A2989 RMK AO2 SLP114 T01890172
KCVG 250852Z 25005KT 10SM FEW250 18/17 A2990 RMK AO2 SLP119 T01830167 53011
KCVG 250952Z 25004KT 10SM BKN250 18/16 A2993 RMK AO2 SLP128 T01780161
KCVG 251052Z 24004KT 10SM BKN300 18/17 A2996 RMK AO2 SLP136 T01830167
KCVG 251152Z 25004KT 10SM SCT300 19/17 A2998 RMK AO2 SLP142 70062 T01890167 10200 20178 51024
KCVG 251252Z 26007KT 10SM SCT300 21/17 A3000 RMK AO2 SLP151 T02060172



Page loaded:  13:57 UTC  |   06:57 AM Pacific  |   07:57 AM Mountain  |   08:57 AM Central  |   09:57 AM Eastern

 

ADVISORIES

FORECASTS

FORECASTS

OBSERVATIONS

USER TOOLS

ABOUT US